sensor_id;sensor_type;location;lat;lon;timestamp;P1;durP1;ratioP1;P2;durP2;ratioP2
6785;SDS011;3430;51.192;6.048;2023-07-02T00:02:22;1.90;;;1.80;;
6785;SDS011;3430;51.192;6.048;2023-07-02T00:04:47;3.10;;;1.60;;
6785;SDS011;3430;51.192;6.048;2023-07-02T00:07:13;2.37;;;1.77;;
6785;SDS011;3430;51.192;6.048;2023-07-02T00:09:39;2.17;;;1.97;;
6785;SDS011;3430;51.192;6.048;2023-07-02T00:12:05;2.20;;;1.90;;
6785;SDS011;3430;51.192;6.048;2023-07-02T00:14:30;2.03;;;1.70;;
6785;SDS011;3430;51.192;6.048;2023-07-02T00:16:56;2.27;;;1.87;;
6785;SDS011;3430;51.192;6.048;2023-07-02T00:19:21;2.43;;;1.60;;
6785;SDS011;3430;51.192;6.048;2023-07-02T00:21:46;1.90;;;1.70;;
6785;SDS011;3430;51.192;6.048;2023-07-02T00:24:12;2.43;;;2.10;;
6785;SDS011;3430;51.192;6.048;2023-07-02T00:26:38;2.00;;;1.90;;
6785;SDS011;3430;51.192;6.048;2023-07-02T00:29:05;1.97;;;1.80;;
6785;SDS011;3430;51.192;6.048;2023-07-02T00:31:31;2.17;;;1.90;;
6785;SDS011;3430;51.192;6.048;2023-07-02T00:33:56;3.13;;;2.00;;
6785;SDS011;3430;51.192;6.048;2023-07-02T00:36:21;2.03;;;1.83;;
6785;SDS011;3430;51.192;6.048;2023-07-02T00:38:47;2.30;;;2.10;;
6785;SDS011;3430;51.192;6.048;2023-07-02T00:41:12;2.23;;;2.03;;
6785;SDS011;3430;51.192;6.048;2023-07-02T00:43:38;2.17;;;1.90;;
6785;SDS011;3430;51.192;6.048;2023-07-02T00:46:13;2.53;;;2.10;;
6785;SDS011;3430;51.192;6.048;2023-07-02T00:48:42;4.60;;;2.17;;
6785;SDS011;3430;51.192;6.048;2023-07-02T00:51:08;2.30;;;2.10;;
6785;SDS011;3430;51.192;6.048;2023-07-02T00:53:34;3.27;;;2.13;;
6785;SDS011;3430;51.192;6.048;2023-07-02T00:56:00;3.17;;;2.27;;
6785;SDS011;3430;51.192;6.048;2023-07-02T00:58:25;2.17;;;1.97;;
6785;SDS011;3430;51.192;6.048;2023-07-02T01:00:50;4.63;;;2.23;;
6785;SDS011;3430;51.192;6.048;2023-07-02T01:03:16;3.23;;;2.40;;
6785;SDS011;3430;51.192;6.048;2023-07-02T01:05:41;3.50;;;2.10;;
6785;SDS011;3430;51.192;6.048;2023-07-02T01:08:06;2.67;;;2.23;;
6785;SDS011;3430;51.192;6.048;2023-07-02T01:10:32;4.83;;;2.27;;
6785;SDS011;3430;51.192;6.048;2023-07-02T01:13:03;2.73;;;2.10;;
6785;SDS011;3430;51.192;6.048;2023-07-02T01:15:29;3.07;;;1.97;;
6785;SDS011;3430;51.192;6.048;2023-07-02T01:17:55;2.83;;;2.20;;
6785;SDS011;3430;51.192;6.048;2023-07-02T01:20:21;2.13;;;1.93;;
6785;SDS011;3430;51.192;6.048;2023-07-02T01:22:48;4.50;;;2.77;;
6785;SDS011;3430;51.192;6.048;2023-07-02T01:25:16;2.47;;;2.27;;
6785;SDS011;3430;51.192;6.048;2023-07-02T01:27:41;4.30;;;2.50;;
6785;SDS011;3430;51.192;6.048;2023-07-02T01:30:07;3.10;;;2.47;;
6785;SDS011;3430;51.192;6.048;2023-07-02T01:32:32;4.33;;;2.30;;
6785;SDS011;3430;51.192;6.048;2023-07-02T01:34:57;3.60;;;2.50;;
6785;SDS011;3430;51.192;6.048;2023-07-02T01:37:24;3.70;;;2.53;;
6785;SDS011;3430;51.192;6.048;2023-07-02T01:39:49;3.43;;;2.53;;
6785;SDS011;3430;51.192;6.048;2023-07-02T01:42:15;3.43;;;2.37;;
6785;SDS011;3430;51.192;6.048;2023-07-02T01:44:41;3.37;;;2.67;;
6785;SDS011;3430;51.192;6.048;2023-07-02T01:47:07;5.17;;;2.80;;
6785;SDS011;3430;51.192;6.048;2023-07-02T01:49:32;3.37;;;2.60;;
6785;SDS011;3430;51.192;6.048;2023-07-02T01:51:58;3.40;;;2.43;;
6785;SDS011;3430;51.192;6.048;2023-07-02T01:54:24;3.70;;;2.60;;
6785;SDS011;3430;51.192;6.048;2023-07-02T01:56:49;4.30;;;2.93;;
6785;SDS011;3430;51.192;6.048;2023-07-02T01:59:15;3.50;;;2.80;;
6785;SDS011;3430;51.192;6.048;2023-07-02T02:01:41;3.00;;;2.47;;
6785;SDS011;3430;51.192;6.048;2023-07-02T02:04:07;4.93;;;3.10;;
6785;SDS011;3430;51.192;6.048;2023-07-02T02:06:33;4.53;;;3.07;;
6785;SDS011;3430;51.192;6.048;2023-07-02T02:08:58;4.63;;;2.93;;
6785;SDS011;3430;51.192;6.048;2023-07-02T02:11:24;4.03;;;2.87;;
6785;SDS011;3430;51.192;6.048;2023-07-02T02:13:49;3.90;;;2.90;;
6785;SDS011;3430;51.192;6.048;2023-07-02T02:16:15;3.60;;;2.80;;
6785;SDS011;3430;51.192;6.048;2023-07-02T02:18:40;5.73;;;3.23;;
6785;SDS011;3430;51.192;6.048;2023-07-02T02:21:06;5.13;;;3.40;;
6785;SDS011;3430;51.192;6.048;2023-07-02T02:23:31;5.50;;;2.93;;
6785;SDS011;3430;51.192;6.048;2023-07-02T02:25:57;4.23;;;3.40;;
6785;SDS011;3430;51.192;6.048;2023-07-02T02:28:22;6.23;;;3.70;;
6785;SDS011;3430;51.192;6.048;2023-07-02T02:30:48;4.80;;;3.27;;
6785;SDS011;3430;51.192;6.048;2023-07-02T02:33:13;5.87;;;3.80;;
6785;SDS011;3430;51.192;6.048;2023-07-02T02:35:39;4.90;;;2.97;;
6785;SDS011;3430;51.192;6.048;2023-07-02T02:38:04;4.47;;;3.40;;
6785;SDS011;3430;51.192;6.048;2023-07-02T02:40:30;7.03;;;4.03;;
6785;SDS011;3430;51.192;6.048;2023-07-02T02:42:55;4.40;;;3.47;;
6785;SDS011;3430;51.192;6.048;2023-07-02T02:45:21;5.63;;;3.57;;
6785;SDS011;3430;51.192;6.048;2023-07-02T02:47:46;5.57;;;3.47;;
6785;SDS011;3430;51.192;6.048;2023-07-02T02:50:13;5.10;;;3.43;;
6785;SDS011;3430;51.192;6.048;2023-07-02T02:52:38;6.87;;;3.90;;
6785;SDS011;3430;51.192;6.048;2023-07-02T02:55:04;5.30;;;3.53;;
6785;SDS011;3430;51.192;6.048;2023-07-02T02:57:31;5.23;;;3.90;;
6785;SDS011;3430;51.192;6.048;2023-07-02T02:59:56;5.03;;;3.50;;
6785;SDS011;3430;51.192;6.048;2023-07-02T03:02:26;8.13;;;4.13;;
6785;SDS011;3430;51.192;6.048;2023-07-02T03:04:51;8.17;;;4.33;;
6785;SDS011;3430;51.192;6.048;2023-07-02T03:07:17;4.87;;;3.83;;
6785;SDS011;3430;51.192;6.048;2023-07-02T03:09:42;6.60;;;4.10;;
6785;SDS011;3430;51.192;6.048;2023-07-02T03:12:11;7.20;;;4.07;;
6785;SDS011;3430;51.192;6.048;2023-07-02T03:14:36;5.50;;;3.97;;
6785;SDS011;3430;51.192;6.048;2023-07-02T03:17:01;5.63;;;4.03;;
6785;SDS011;3430;51.192;6.048;2023-07-02T03:19:28;7.93;;;4.43;;
6785;SDS011;3430;51.192;6.048;2023-07-02T03:21:53;7.73;;;4.53;;
6785;SDS011;3430;51.192;6.048;2023-07-02T03:24:18;10.10;;;4.80;;
6785;SDS011;3430;51.192;6.048;2023-07-02T03:26:44;6.47;;;4.50;;
6785;SDS011;3430;51.192;6.048;2023-07-02T03:29:10;6.53;;;3.83;;
6785;SDS011;3430;51.192;6.048;2023-07-02T03:31:35;7.73;;;4.30;;
6785;SDS011;3430;51.192;6.048;2023-07-02T03:34:05;6.43;;;4.73;;
6785;SDS011;3430;51.192;6.048;2023-07-02T03:36:31;7.43;;;4.80;;
6785;SDS011;3430;51.192;6.048;2023-07-02T03:38:56;9.03;;;5.00;;
6785;SDS011;3430;51.192;6.048;2023-07-02T03:41:21;7.03;;;4.63;;
6785;SDS011;3430;51.192;6.048;2023-07-02T03:43:46;7.20;;;4.80;;
6785;SDS011;3430;51.192;6.048;2023-07-02T03:46:13;8.80;;;4.53;;
6785;SDS011;3430;51.192;6.048;2023-07-02T03:48:38;8.30;;;4.77;;
6785;SDS011;3430;51.192;6.048;2023-07-02T03:51:04;8.77;;;5.37;;
6785;SDS011;3430;51.192;6.048;2023-07-02T03:53:29;9.27;;;5.00;;
6785;SDS011;3430;51.192;6.048;2023-07-02T03:55:54;6.50;;;4.60;;
6785;SDS011;3430;51.192;6.048;2023-07-02T03:58:20;6.60;;;4.80;;
6785;SDS011;3430;51.192;6.048;2023-07-02T04:00:45;7.73;;;5.10;;
6785;SDS011;3430;51.192;6.048;2023-07-02T04:03:10;8.90;;;4.87;;
6785;SDS011;3430;51.192;6.048;2023-07-02T04:05:36;12.20;;;5.37;;
6785;SDS011;3430;51.192;6.048;2023-07-02T04:08:01;10.47;;;5.37;;
6785;SDS011;3430;51.192;6.048;2023-07-02T04:10:26;8.13;;;4.93;;
6785;SDS011;3430;51.192;6.048;2023-07-02T04:12:51;9.57;;;6.10;;
6785;SDS011;3430;51.192;6.048;2023-07-02T04:15:17;8.40;;;5.20;;
6785;SDS011;3430;51.192;6.048;2023-07-02T04:17:42;8.53;;;5.23;;
6785;SDS011;3430;51.192;6.048;2023-07-02T04:20:07;7.87;;;6.23;;
6785;SDS011;3430;51.192;6.048;2023-07-02T04:22:33;8.97;;;5.57;;
6785;SDS011;3430;51.192;6.048;2023-07-02T04:24:58;8.33;;;5.23;;
6785;SDS011;3430;51.192;6.048;2023-07-02T04:27:24;8.80;;;5.13;;
6785;SDS011;3430;51.192;6.048;2023-07-02T04:29:49;10.90;;;6.27;;
6785;SDS011;3430;51.192;6.048;2023-07-02T04:32:14;9.33;;;5.40;;
6785;SDS011;3430;51.192;6.048;2023-07-02T04:34:40;7.40;;;5.33;;
6785;SDS011;3430;51.192;6.048;2023-07-02T04:37:06;9.03;;;6.10;;
6785;SDS011;3430;51.192;6.048;2023-07-02T04:39:31;13.30;;;7.03;;
6785;SDS011;3430;51.192;6.048;2023-07-02T04:41:57;12.60;;;6.10;;
6785;SDS011;3430;51.192;6.048;2023-07-02T04:44:22;11.40;;;6.03;;
6785;SDS011;3430;51.192;6.048;2023-07-02T04:46:54;9.87;;;5.70;;
6785;SDS011;3430;51.192;6.048;2023-07-02T04:49:19;11.73;;;7.00;;
6785;SDS011;3430;51.192;6.048;2023-07-02T04:51:44;12.83;;;6.83;;
6785;SDS011;3430;51.192;6.048;2023-07-02T04:54:10;10.77;;;5.57;;
6785;SDS011;3430;51.192;6.048;2023-07-02T04:56:38;11.53;;;6.43;;
6785;SDS011;3430;51.192;6.048;2023-07-02T04:59:03;10.67;;;6.07;;
6785;SDS011;3430;51.192;6.048;2023-07-02T05:01:28;10.33;;;5.83;;
6785;SDS011;3430;51.192;6.048;2023-07-02T05:03:54;11.27;;;6.83;;
6785;SDS011;3430;51.192;6.048;2023-07-02T05:06:21;11.47;;;6.07;;
6785;SDS011;3430;51.192;6.048;2023-07-02T05:08:46;11.80;;;6.90;;
6785;SDS011;3430;51.192;6.048;2023-07-02T05:11:11;11.33;;;6.77;;
6785;SDS011;3430;51.192;6.048;2023-07-02T05:13:36;9.13;;;5.80;;
6785;SDS011;3430;51.192;6.048;2023-07-02T05:16:02;11.37;;;6.63;;
6785;SDS011;3430;51.192;6.048;2023-07-02T05:18:27;12.33;;;6.90;;
6785;SDS011;3430;51.192;6.048;2023-07-02T05:20:53;12.77;;;6.37;;
6785;SDS011;3430;51.192;6.048;2023-07-02T05:23:18;13.33;;;7.20;;
6785;SDS011;3430;51.192;6.048;2023-07-02T05:25:43;11.33;;;6.37;;
6785;SDS011;3430;51.192;6.048;2023-07-02T05:28:11;10.50;;;6.60;;
6785;SDS011;3430;51.192;6.048;2023-07-02T05:30:36;10.77;;;7.17;;
6785;SDS011;3430;51.192;6.048;2023-07-02T05:33:01;14.53;;;7.00;;
6785;SDS011;3430;51.192;6.048;2023-07-02T05:35:26;11.17;;;7.03;;
6785;SDS011;3430;51.192;6.048;2023-07-02T05:37:52;10.77;;;6.90;;
6785;SDS011;3430;51.192;6.048;2023-07-02T05:40:17;11.77;;;7.13;;
6785;SDS011;3430;51.192;6.048;2023-07-02T05:42:42;10.17;;;6.77;;
6785;SDS011;3430;51.192;6.048;2023-07-02T05:45:08;11.90;;;7.67;;
6785;SDS011;3430;51.192;6.048;2023-07-02T05:47:33;12.87;;;7.50;;
6785;SDS011;3430;51.192;6.048;2023-07-02T05:49:58;16.07;;;8.00;;
6785;SDS011;3430;51.192;6.048;2023-07-02T05:52:24;12.07;;;7.23;;
6785;SDS011;3430;51.192;6.048;2023-07-02T05:54:49;12.57;;;7.37;;
6785;SDS011;3430;51.192;6.048;2023-07-02T05:57:14;15.70;;;8.40;;
6785;SDS011;3430;51.192;6.048;2023-07-02T05:59:40;13.50;;;7.83;;
6785;SDS011;3430;51.192;6.048;2023-07-02T06:02:05;11.13;;;7.13;;
6785;SDS011;3430;51.192;6.048;2023-07-02T06:04:31;12.50;;;7.30;;
6785;SDS011;3430;51.192;6.048;2023-07-02T06:06:56;14.83;;;7.93;;
6785;SDS011;3430;51.192;6.048;2023-07-02T06:09:22;12.77;;;7.43;;
6785;SDS011;3430;51.192;6.048;2023-07-02T06:11:47;15.33;;;7.53;;
6785;SDS011;3430;51.192;6.048;2023-07-02T06:14:13;13.33;;;7.33;;
6785;SDS011;3430;51.192;6.048;2023-07-02T06:16:38;14.07;;;7.50;;
6785;SDS011;3430;51.192;6.048;2023-07-02T06:19:03;15.17;;;7.50;;
6785;SDS011;3430;51.192;6.048;2023-07-02T06:21:32;10.33;;;6.93;;
6785;SDS011;3430;51.192;6.048;2023-07-02T06:23:57;14.70;;;7.87;;
6785;SDS011;3430;51.192;6.048;2023-07-02T06:26:23;12.63;;;7.97;;
6785;SDS011;3430;51.192;6.048;2023-07-02T06:28:49;13.70;;;8.07;;
6785;SDS011;3430;51.192;6.048;2023-07-02T06:31:14;11.47;;;7.53;;
6785;SDS011;3430;51.192;6.048;2023-07-02T06:33:40;18.83;;;8.47;;
6785;SDS011;3430;51.192;6.048;2023-07-02T06:36:05;16.33;;;9.20;;
6785;SDS011;3430;51.192;6.048;2023-07-02T06:38:31;14.57;;;8.77;;
6785;SDS011;3430;51.192;6.048;2023-07-02T06:40:56;15.43;;;8.10;;
6785;SDS011;3430;51.192;6.048;2023-07-02T06:43:21;17.83;;;9.23;;
6785;SDS011;3430;51.192;6.048;2023-07-02T06:45:47;19.40;;;8.07;;
6785;SDS011;3430;51.192;6.048;2023-07-02T06:48:15;13.77;;;7.23;;
6785;SDS011;3430;51.192;6.048;2023-07-02T06:50:45;18.83;;;9.40;;
6785;SDS011;3430;51.192;6.048;2023-07-02T06:53:11;13.73;;;7.77;;
6785;SDS011;3430;51.192;6.048;2023-07-02T06:55:36;15.37;;;8.63;;
6785;SDS011;3430;51.192;6.048;2023-07-02T06:58:02;13.70;;;8.07;;
6785;SDS011;3430;51.192;6.048;2023-07-02T07:00:27;13.90;;;7.87;;
6785;SDS011;3430;51.192;6.048;2023-07-02T07:02:52;15.93;;;8.43;;
6785;SDS011;3430;51.192;6.048;2023-07-02T07:05:18;14.40;;;7.77;;
6785;SDS011;3430;51.192;6.048;2023-07-02T07:07:43;15.17;;;7.93;;
6785;SDS011;3430;51.192;6.048;2023-07-02T07:10:08;13.33;;;8.47;;
6785;SDS011;3430;51.192;6.048;2023-07-02T07:12:33;13.07;;;7.47;;
6785;SDS011;3430;51.192;6.048;2023-07-02T07:14:59;19.23;;;8.93;;
6785;SDS011;3430;51.192;6.048;2023-07-02T07:17:24;12.13;;;8.13;;
6785;SDS011;3430;51.192;6.048;2023-07-02T07:19:49;18.43;;;8.70;;
6785;SDS011;3430;51.192;6.048;2023-07-02T07:22:15;16.27;;;8.77;;
6785;SDS011;3430;51.192;6.048;2023-07-02T07:24:41;12.83;;;8.67;;
6785;SDS011;3430;51.192;6.048;2023-07-02T07:27:06;15.67;;;8.53;;
6785;SDS011;3430;51.192;6.048;2023-07-02T07:29:32;17.37;;;9.20;;
6785;SDS011;3430;51.192;6.048;2023-07-02T07:31:57;15.17;;;8.37;;
6785;SDS011;3430;51.192;6.048;2023-07-02T07:34:22;15.93;;;8.20;;
6785;SDS011;3430;51.192;6.048;2023-07-02T07:36:47;15.53;;;7.93;;
6785;SDS011;3430;51.192;6.048;2023-07-02T07:39:13;15.40;;;8.10;;
6785;SDS011;3430;51.192;6.048;2023-07-02T07:41:38;13.07;;;8.40;;
6785;SDS011;3430;51.192;6.048;2023-07-02T07:44:03;13.57;;;8.17;;
6785;SDS011;3430;51.192;6.048;2023-07-02T07:46:28;15.97;;;8.77;;
6785;SDS011;3430;51.192;6.048;2023-07-02T07:48:54;14.37;;;8.37;;
6785;SDS011;3430;51.192;6.048;2023-07-02T07:51:19;17.03;;;8.70;;
6785;SDS011;3430;51.192;6.048;2023-07-02T07:53:44;15.87;;;8.07;;
6785;SDS011;3430;51.192;6.048;2023-07-02T07:56:09;17.47;;;8.00;;
6785;SDS011;3430;51.192;6.048;2023-07-02T07:58:35;12.50;;;7.60;;
6785;SDS011;3430;51.192;6.048;2023-07-02T08:01:00;14.27;;;8.13;;
6785;SDS011;3430;51.192;6.048;2023-07-02T08:03:26;16.20;;;8.60;;
6785;SDS011;3430;51.192;6.048;2023-07-02T08:05:51;14.10;;;8.30;;
6785;SDS011;3430;51.192;6.048;2023-07-02T08:08:16;13.93;;;9.00;;
6785;SDS011;3430;51.192;6.048;2023-07-02T08:10:42;13.27;;;7.87;;
6785;SDS011;3430;51.192;6.048;2023-07-02T08:13:07;13.47;;;7.67;;
6785;SDS011;3430;51.192;6.048;2023-07-02T08:15:33;15.87;;;9.20;;
6785;SDS011;3430;51.192;6.048;2023-07-02T08:17:58;17.37;;;8.63;;
6785;SDS011;3430;51.192;6.048;2023-07-02T08:20:24;16.13;;;8.67;;
6785;SDS011;3430;51.192;6.048;2023-07-02T08:22:49;14.97;;;8.70;;
6785;SDS011;3430;51.192;6.048;2023-07-02T08:25:16;13.10;;;8.17;;
6785;SDS011;3430;51.192;6.048;2023-07-02T08:27:43;12.80;;;8.03;;
6785;SDS011;3430;51.192;6.048;2023-07-02T08:30:08;15.50;;;8.57;;
6785;SDS011;3430;51.192;6.048;2023-07-02T08:32:34;17.23;;;8.23;;
6785;SDS011;3430;51.192;6.048;2023-07-02T08:34:59;20.03;;;11.60;;
6785;SDS011;3430;51.192;6.048;2023-07-02T08:37:25;24.30;;;10.53;;
6785;SDS011;3430;51.192;6.048;2023-07-02T08:39:50;19.43;;;9.37;;
6785;SDS011;3430;51.192;6.048;2023-07-02T08:42:16;21.13;;;8.60;;
6785;SDS011;3430;51.192;6.048;2023-07-02T08:44:42;15.63;;;7.73;;
6785;SDS011;3430;51.192;6.048;2023-07-02T08:47:11;11.87;;;8.40;;
6785;SDS011;3430;51.192;6.048;2023-07-02T08:49:36;15.23;;;8.07;;
6785;SDS011;3430;51.192;6.048;2023-07-02T08:52:02;15.37;;;8.20;;
6785;SDS011;3430;51.192;6.048;2023-07-02T08:54:27;12.50;;;8.53;;
6785;SDS011;3430;51.192;6.048;2023-07-02T08:56:52;18.97;;;9.50;;
6785;SDS011;3430;51.192;6.048;2023-07-02T08:59:17;13.90;;;8.67;;
6785;SDS011;3430;51.192;6.048;2023-07-02T09:01:46;15.53;;;8.73;;
6785;SDS011;3430;51.192;6.048;2023-07-02T09:04:30;18.00;;;9.27;;
6785;SDS011;3430;51.192;6.048;2023-07-02T09:07:05;16.10;;;7.90;;
6785;SDS011;3430;51.192;6.048;2023-07-02T09:09:31;15.93;;;8.33;;
6785;SDS011;3430;51.192;6.048;2023-07-02T09:11:56;19.77;;;8.33;;
6785;SDS011;3430;51.192;6.048;2023-07-02T09:17:00;14.90;;;8.73;;
6785;SDS011;3430;51.192;6.048;2023-07-02T09:19:25;13.73;;;7.47;;
6785;SDS011;3430;51.192;6.048;2023-07-02T09:21:51;14.17;;;8.10;;
6785;SDS011;3430;51.192;6.048;2023-07-02T09:26:46;13.67;;;7.57;;
6785;SDS011;3430;51.192;6.048;2023-07-02T09:29:12;13.67;;;7.10;;
6785;SDS011;3430;51.192;6.048;2023-07-02T09:31:47;14.33;;;7.50;;
6785;SDS011;3430;51.192;6.048;2023-07-02T09:34:13;13.37;;;7.33;;
6785;SDS011;3430;51.192;6.048;2023-07-02T09:36:39;14.93;;;6.97;;
6785;SDS011;3430;51.192;6.048;2023-07-02T09:39:11;12.50;;;7.10;;
6785;SDS011;3430;51.192;6.048;2023-07-02T09:41:37;15.47;;;6.67;;
6785;SDS011;3430;51.192;6.048;2023-07-02T09:44:03;15.10;;;7.50;;
6785;SDS011;3430;51.192;6.048;2023-07-02T09:46:29;15.87;;;6.30;;
6785;SDS011;3430;51.192;6.048;2023-07-02T09:48:58;13.40;;;6.93;;
6785;SDS011;3430;51.192;6.048;2023-07-02T09:51:24;14.33;;;8.03;;
6785;SDS011;3430;51.192;6.048;2023-07-02T09:53:54;13.60;;;6.90;;
6785;SDS011;3430;51.192;6.048;2023-07-02T09:56:19;11.13;;;6.60;;
6785;SDS011;3430;51.192;6.048;2023-07-02T09:58:46;14.07;;;7.50;;
6785;SDS011;3430;51.192;6.048;2023-07-02T10:01:14;14.67;;;7.07;;
6785;SDS011;3430;51.192;6.048;2023-07-02T10:03:39;12.70;;;7.07;;
6785;SDS011;3430;51.192;6.048;2023-07-02T10:06:05;10.53;;;6.80;;
6785;SDS011;3430;51.192;6.048;2023-07-02T10:08:31;10.70;;;6.47;;
6785;SDS011;3430;51.192;6.048;2023-07-02T10:11:12;10.23;;;6.50;;
6785;SDS011;3430;51.192;6.048;2023-07-02T10:13:38;9.70;;;6.17;;
6785;SDS011;3430;51.192;6.048;2023-07-02T10:16:04;10.63;;;6.73;;
6785;SDS011;3430;51.192;6.048;2023-07-02T10:18:30;12.37;;;7.13;;
6785;SDS011;3430;51.192;6.048;2023-07-02T10:20:58;10.37;;;5.83;;
6785;SDS011;3430;51.192;6.048;2023-07-02T10:23:35;10.13;;;6.50;;
6785;SDS011;3430;51.192;6.048;2023-07-02T10:26:17;14.97;;;6.20;;
6785;SDS011;3430;51.192;6.048;2023-07-02T10:28:43;10.43;;;5.73;;
6785;SDS011;3430;51.192;6.048;2023-07-02T10:31:17;11.03;;;6.00;;
6785;SDS011;3430;51.192;6.048;2023-07-02T10:33:46;10.33;;;5.77;;
6785;SDS011;3430;51.192;6.048;2023-07-02T10:36:18;8.33;;;5.70;;
6785;SDS011;3430;51.192;6.048;2023-07-02T10:38:46;10.33;;;6.00;;
6785;SDS011;3430;51.192;6.048;2023-07-02T10:41:12;7.67;;;5.50;;
6785;SDS011;3430;51.192;6.048;2023-07-02T10:43:37;13.43;;;6.20;;
6785;SDS011;3430;51.192;6.048;2023-07-02T10:46:03;10.80;;;6.03;;
6785;SDS011;3430;51.192;6.048;2023-07-02T10:48:30;9.53;;;5.53;;
6785;SDS011;3430;51.192;6.048;2023-07-02T10:50:59;10.63;;;5.43;;
6785;SDS011;3430;51.192;6.048;2023-07-02T10:53:24;8.27;;;5.77;;
6785;SDS011;3430;51.192;6.048;2023-07-02T10:55:53;12.47;;;6.00;;
6785;SDS011;3430;51.192;6.048;2023-07-02T10:58:19;12.17;;;5.87;;
6785;SDS011;3430;51.192;6.048;2023-07-02T11:00:48;12.00;;;6.27;;
6785;SDS011;3430;51.192;6.048;2023-07-02T11:03:21;16.20;;;6.40;;
6785;SDS011;3430;51.192;6.048;2023-07-02T11:05:48;12.00;;;5.67;;
6785;SDS011;3430;51.192;6.048;2023-07-02T11:08:22;12.07;;;6.10;;
6785;SDS011;3430;51.192;6.048;2023-07-02T11:10:49;8.57;;;5.60;;
6785;SDS011;3430;51.192;6.048;2023-07-02T11:13:16;10.27;;;5.60;;
6785;SDS011;3430;51.192;6.048;2023-07-02T11:15:44;10.73;;;5.60;;
6785;SDS011;3430;51.192;6.048;2023-07-02T11:18:17;10.10;;;6.07;;
6785;SDS011;3430;51.192;6.048;2023-07-02T11:20:43;9.93;;;6.13;;
6785;SDS011;3430;51.192;6.048;2023-07-02T11:26:05;7.33;;;5.33;;
6785;SDS011;3430;51.192;6.048;2023-07-02T11:28:30;11.27;;;5.97;;
6785;SDS011;3430;51.192;6.048;2023-07-02T11:30:56;11.10;;;5.10;;
6785;SDS011;3430;51.192;6.048;2023-07-02T11:36:23;10.17;;;5.27;;
6785;SDS011;3430;51.192;6.048;2023-07-02T11:38:55;13.17;;;5.97;;
6785;SDS011;3430;51.192;6.048;2023-07-02T11:41:20;11.27;;;5.73;;
6785;SDS011;3430;51.192;6.048;2023-07-02T11:43:46;12.77;;;6.17;;
6785;SDS011;3430;51.192;6.048;2023-07-02T11:46:15;11.13;;;5.70;;
6785;SDS011;3430;51.192;6.048;2023-07-02T11:48:40;10.17;;;6.17;;
6785;SDS011;3430;51.192;6.048;2023-07-02T11:51:06;9.10;;;5.80;;
6785;SDS011;3430;51.192;6.048;2023-07-02T11:53:32;9.57;;;5.80;;
6785;SDS011;3430;51.192;6.048;2023-07-02T11:55:57;9.10;;;5.20;;
6785;SDS011;3430;51.192;6.048;2023-07-02T11:58:23;9.07;;;5.47;;
6785;SDS011;3430;51.192;6.048;2023-07-02T12:00:51;12.70;;;5.67;;
6785;SDS011;3430;51.192;6.048;2023-07-02T12:03:16;12.40;;;6.53;;
6785;SDS011;3430;51.192;6.048;2023-07-02T12:05:44;9.20;;;5.20;;
6785;SDS011;3430;51.192;6.048;2023-07-02T12:08:12;11.40;;;6.00;;
6785;SDS011;3430;51.192;6.048;2023-07-02T12:10:44;9.23;;;5.63;;
6785;SDS011;3430;51.192;6.048;2023-07-02T12:13:10;12.53;;;6.10;;
6785;SDS011;3430;51.192;6.048;2023-07-02T12:15:35;10.43;;;5.83;;
6785;SDS011;3430;51.192;6.048;2023-07-02T12:18:01;12.07;;;6.03;;
6785;SDS011;3430;51.192;6.048;2023-07-02T12:20:26;7.97;;;5.30;;
6785;SDS011;3430;51.192;6.048;2023-07-02T12:22:51;10.03;;;4.97;;
6785;SDS011;3430;51.192;6.048;2023-07-02T12:25:16;14.13;;;5.63;;
6785;SDS011;3430;51.192;6.048;2023-07-02T12:27:42;12.03;;;6.30;;
6785;SDS011;3430;51.192;6.048;2023-07-02T12:30:07;7.40;;;5.07;;
6785;SDS011;3430;51.192;6.048;2023-07-02T12:32:33;8.60;;;5.90;;
6785;SDS011;3430;51.192;6.048;2023-07-02T12:34:59;8.20;;;5.43;;
6785;SDS011;3430;51.192;6.048;2023-07-02T12:37:24;9.07;;;5.27;;
6785;SDS011;3430;51.192;6.048;2023-07-02T12:39:49;9.07;;;5.13;;
6785;SDS011;3430;51.192;6.048;2023-07-02T12:42:15;12.03;;;5.87;;
6785;SDS011;3430;51.192;6.048;2023-07-02T12:44:40;9.27;;;5.73;;
6785;SDS011;3430;51.192;6.048;2023-07-02T12:47:05;8.83;;;5.70;;
6785;SDS011;3430;51.192;6.048;2023-07-02T12:49:30;8.97;;;5.37;;
6785;SDS011;3430;51.192;6.048;2023-07-02T12:51:56;9.47;;;5.20;;
6785;SDS011;3430;51.192;6.048;2023-07-02T12:54:21;7.67;;;5.00;;
6785;SDS011;3430;51.192;6.048;2023-07-02T12:56:46;12.07;;;5.33;;
6785;SDS011;3430;51.192;6.048;2023-07-02T12:59:12;10.03;;;4.90;;
6785;SDS011;3430;51.192;6.048;2023-07-02T13:01:38;10.50;;;5.50;;
6785;SDS011;3430;51.192;6.048;2023-07-02T13:04:04;8.83;;;5.03;;
6785;SDS011;3430;51.192;6.048;2023-07-02T13:06:29;9.87;;;5.97;;
6785;SDS011;3430;51.192;6.048;2023-07-02T13:08:54;8.47;;;5.47;;
6785;SDS011;3430;51.192;6.048;2023-07-02T13:11:23;8.00;;;5.13;;
6785;SDS011;3430;51.192;6.048;2023-07-02T13:13:49;9.20;;;5.77;;
6785;SDS011;3430;51.192;6.048;2023-07-02T13:16:14;8.77;;;5.30;;
6785;SDS011;3430;51.192;6.048;2023-07-02T13:18:39;10.43;;;4.67;;
6785;SDS011;3430;51.192;6.048;2023-07-02T13:21:04;12.53;;;5.73;;
6785;SDS011;3430;51.192;6.048;2023-07-02T13:23:30;10.77;;;5.83;;
6785;SDS011;3430;51.192;6.048;2023-07-02T13:25:55;9.63;;;5.43;;
6785;SDS011;3430;51.192;6.048;2023-07-02T13:28:20;11.47;;;5.37;;
6785;SDS011;3430;51.192;6.048;2023-07-02T13:30:46;11.83;;;5.63;;
6785;SDS011;3430;51.192;6.048;2023-07-02T13:33:11;11.67;;;6.40;;
6785;SDS011;3430;51.192;6.048;2023-07-02T13:35:36;8.73;;;5.50;;
6785;SDS011;3430;51.192;6.048;2023-07-02T13:38:03;9.43;;;6.00;;
6785;SDS011;3430;51.192;6.048;2023-07-02T13:40:29;9.80;;;5.53;;
6785;SDS011;3430;51.192;6.048;2023-07-02T13:42:55;9.03;;;5.17;;
6785;SDS011;3430;51.192;6.048;2023-07-02T13:45:20;11.70;;;5.87;;
6785;SDS011;3430;51.192;6.048;2023-07-02T13:47:46;7.57;;;5.43;;
6785;SDS011;3430;51.192;6.048;2023-07-02T13:50:11;12.47;;;5.67;;
6785;SDS011;3430;51.192;6.048;2023-07-02T13:52:36;10.93;;;5.80;;
6785;SDS011;3430;51.192;6.048;2023-07-02T13:55:02;10.83;;;6.10;;
6785;SDS011;3430;51.192;6.048;2023-07-02T13:57:27;10.67;;;5.77;;
6785;SDS011;3430;51.192;6.048;2023-07-02T13:59:52;13.03;;;6.27;;
6785;SDS011;3430;51.192;6.048;2023-07-02T14:02:18;10.47;;;5.83;;
6785;SDS011;3430;51.192;6.048;2023-07-02T14:04:44;10.27;;;5.90;;
6785;SDS011;3430;51.192;6.048;2023-07-02T14:07:09;9.87;;;6.07;;
6785;SDS011;3430;51.192;6.048;2023-07-02T14:09:35;8.93;;;5.73;;
6785;SDS011;3430;51.192;6.048;2023-07-02T14:12:01;13.27;;;6.27;;
6785;SDS011;3430;51.192;6.048;2023-07-02T14:14:26;10.83;;;5.57;;
6785;SDS011;3430;51.192;6.048;2023-07-02T14:16:51;9.07;;;4.87;;
6785;SDS011;3430;51.192;6.048;2023-07-02T14:19:16;8.10;;;5.93;;
6785;SDS011;3430;51.192;6.048;2023-07-02T14:21:42;10.33;;;5.37;;
6785;SDS011;3430;51.192;6.048;2023-07-02T14:24:08;11.97;;;5.93;;
6785;SDS011;3430;51.192;6.048;2023-07-02T14:26:34;9.40;;;5.93;;
6785;SDS011;3430;51.192;6.048;2023-07-02T14:28:59;9.17;;;5.70;;
6785;SDS011;3430;51.192;6.048;2023-07-02T14:31:24;12.63;;;6.37;;
6785;SDS011;3430;51.192;6.048;2023-07-02T14:33:50;11.17;;;5.43;;
6785;SDS011;3430;51.192;6.048;2023-07-02T14:36:15;12.63;;;6.97;;
6785;SDS011;3430;51.192;6.048;2023-07-02T14:38:42;9.20;;;6.00;;
6785;SDS011;3430;51.192;6.048;2023-07-02T14:41:08;11.80;;;5.93;;
6785;SDS011;3430;51.192;6.048;2023-07-02T14:43:34;8.53;;;5.57;;
6785;SDS011;3430;51.192;6.048;2023-07-02T14:46:00;14.57;;;6.47;;
6785;SDS011;3430;51.192;6.048;2023-07-02T14:48:26;9.83;;;5.87;;
6785;SDS011;3430;51.192;6.048;2023-07-02T14:50:56;13.50;;;6.30;;
6785;SDS011;3430;51.192;6.048;2023-07-02T14:53:22;10.03;;;6.00;;
6785;SDS011;3430;51.192;6.048;2023-07-02T14:55:50;13.87;;;5.97;;
6785;SDS011;3430;51.192;6.048;2023-07-02T14:58:16;8.90;;;5.90;;
6785;SDS011;3430;51.192;6.048;2023-07-02T15:00:45;9.97;;;6.10;;
6785;SDS011;3430;51.192;6.048;2023-07-02T15:03:11;8.10;;;5.27;;
6785;SDS011;3430;51.192;6.048;2023-07-02T15:05:40;8.40;;;5.03;;
6785;SDS011;3430;51.192;6.048;2023-07-02T15:08:08;9.47;;;5.87;;
6785;SDS011;3430;51.192;6.048;2023-07-02T15:10:34;10.77;;;6.33;;
6785;SDS011;3430;51.192;6.048;2023-07-02T15:13:00;10.10;;;5.90;;